Terminal Aerodrome Forecast
Issued by NWS

Current Version | Previous Version | Graphics & Text | Print | Product List | Glossary Off
Versions: 1 2 3 4 5 6 7 8 9 10 11 12 13 14 15 16 17 18 19 20 21 22 23 24

121
FTUS41 KRLX 141731
TAFCKB
TAF
KCKB 141731Z 1418/1518 VRB03KT P6SM BKN250
     FM142000 10003KT P6SM BKN100
     FM150100 13005KT 4SM -SN OVC045
     FM150300 14006KT 2SM -SN OVC018
     FM151600 16006KT 4SM -SNRA OVC020=

USA.gov is the U.S. government's official web portal to all federal, state and local government web resources and services.